sensor_id;sensor_type;location;lat;lon;timestamp;P1;durP1;ratioP1;P2;durP2;ratioP2
65641;SDS011;52340;-6.720;108.544;2023-09-19T00:00:02;64.97;;;32.92;;
65641;SDS011;52340;-6.720;108.544;2023-09-19T00:01:04;66.05;;;32.25;;
65641;SDS011;52340;-6.720;108.544;2023-09-19T00:02:06;64.30;;;32.17;;
65641;SDS011;52340;-6.720;108.544;2023-09-19T00:03:08;58.90;;;30.27;;
65641;SDS011;52340;-6.720;108.544;2023-09-19T00:04:10;62.65;;;30.08;;
65641;SDS011;52340;-6.720;108.544;2023-09-19T00:05:11;51.85;;;29.02;;
65641;SDS011;52340;-6.720;108.544;2023-09-19T00:06:13;49.40;;;27.30;;
65641;SDS011;52340;-6.720;108.544;2023-09-19T00:07:15;58.75;;;30.23;;
65641;SDS011;52340;-6.720;108.544;2023-09-19T00:08:17;54.20;;;28.50;;
65641;SDS011;52340;-6.720;108.544;2023-09-19T00:09:18;54.53;;;28.42;;
65641;SDS011;52340;-6.720;108.544;2023-09-19T00:10:20;50.28;;;28.08;;
65641;SDS011;52340;-6.720;108.544;2023-09-19T00:11:22;48.50;;;27.65;;
65641;SDS011;52340;-6.720;108.544;2023-09-19T00:12:26;50.78;;;27.38;;
65641;SDS011;52340;-6.720;108.544;2023-09-19T00:13:27;48.13;;;27.02;;
65641;SDS011;52340;-6.720;108.544;2023-09-19T00:14:29;47.60;;;26.88;;
65641;SDS011;52340;-6.720;108.544;2023-09-19T00:15:36;44.33;;;26.45;;
65641;SDS011;52340;-6.720;108.544;2023-09-19T00:16:38;50.33;;;26.08;;
65641;SDS011;52340;-6.720;108.544;2023-09-19T00:17:39;48.88;;;26.33;;
65641;SDS011;52340;-6.720;108.544;2023-09-19T00:18:41;42.97;;;25.88;;
65641;SDS011;52340;-6.720;108.544;2023-09-19T00:19:43;50.03;;;26.10;;
65641;SDS011;52340;-6.720;108.544;2023-09-19T00:20:44;47.28;;;24.75;;
65641;SDS011;52340;-6.720;108.544;2023-09-19T00:21:46;47.65;;;25.33;;
65641;SDS011;52340;-6.720;108.544;2023-09-19T00:22:48;50.78;;;23.55;;
65641;SDS011;52340;-6.720;108.544;2023-09-19T00:23:50;40.35;;;22.63;;
65641;SDS011;52340;-6.720;108.544;2023-09-19T00:24:52;37.47;;;22.00;;
65641;SDS011;52340;-6.720;108.544;2023-09-19T00:25:54;38.53;;;21.25;;
65641;SDS011;52340;-6.720;108.544;2023-09-19T00:26:59;31.80;;;17.75;;
65641;SDS011;52340;-6.720;108.544;2023-09-19T00:28:03;40.75;;;18.23;;
65641;SDS011;52340;-6.720;108.544;2023-09-19T00:29:05;29.17;;;16.27;;
65641;SDS011;52340;-6.720;108.544;2023-09-19T00:30:07;29.65;;;14.95;;
65641;SDS011;52340;-6.720;108.544;2023-09-19T00:31:10;30.50;;;15.23;;
65641;SDS011;52340;-6.720;108.544;2023-09-19T00:32:11;27.67;;;14.07;;
65641;SDS011;52340;-6.720;108.544;2023-09-19T00:33:13;27.70;;;13.55;;
65641;SDS011;52340;-6.720;108.544;2023-09-19T00:34:15;31.40;;;13.43;;
65641;SDS011;52340;-6.720;108.544;2023-09-19T00:35:17;24.52;;;12.52;;
65641;SDS011;52340;-6.720;108.544;2023-09-19T00:36:18;21.70;;;12.82;;
65641;SDS011;52340;-6.720;108.544;2023-09-19T00:37:20;22.90;;;12.23;;
65641;SDS011;52340;-6.720;108.544;2023-09-19T00:38:22;19.83;;;11.93;;
65641;SDS011;52340;-6.720;108.544;2023-09-19T00:39:24;23.15;;;11.88;;
65641;SDS011;52340;-6.720;108.544;2023-09-19T00:40:25;22.63;;;12.27;;
65641;SDS011;52340;-6.720;108.544;2023-09-19T00:41:27;24.08;;;11.95;;
65641;SDS011;52340;-6.720;108.544;2023-09-19T00:42:29;24.80;;;12.57;;
65641;SDS011;52340;-6.720;108.544;2023-09-19T00:43:32;28.33;;;12.35;;
65641;SDS011;52340;-6.720;108.544;2023-09-19T00:44:34;24.58;;;12.10;;
65641;SDS011;52340;-6.720;108.544;2023-09-19T00:45:36;22.35;;;11.98;;
65641;SDS011;52340;-6.720;108.544;2023-09-19T00:46:38;22.15;;;11.25;;
65641;SDS011;52340;-6.720;108.544;2023-09-19T00:47:39;24.23;;;12.02;;
65641;SDS011;52340;-6.720;108.544;2023-09-19T00:48:43;20.20;;;11.40;;
65641;SDS011;52340;-6.720;108.544;2023-09-19T00:49:44;19.92;;;10.70;;
65641;SDS011;52340;-6.720;108.544;2023-09-19T00:50:47;21.52;;;10.60;;
65641;SDS011;52340;-6.720;108.544;2023-09-19T00:51:49;26.17;;;10.50;;
65641;SDS011;52340;-6.720;108.544;2023-09-19T00:52:53;20.17;;;10.75;;
65641;SDS011;52340;-6.720;108.544;2023-09-19T00:53:55;18.65;;;10.60;;
65641;SDS011;52340;-6.720;108.544;2023-09-19T00:54:57;21.90;;;10.25;;
65641;SDS011;52340;-6.720;108.544;2023-09-19T00:55:59;21.77;;;9.80;;
65641;SDS011;52340;-6.720;108.544;2023-09-19T00:57:01;20.85;;;10.75;;
65641;SDS011;52340;-6.720;108.544;2023-09-19T00:58:03;22.25;;;10.52;;
65641;SDS011;52340;-6.720;108.544;2023-09-19T00:59:07;23.63;;;10.88;;
65641;SDS011;52340;-6.720;108.544;2023-09-19T01:00:09;21.73;;;11.02;;
65641;SDS011;52340;-6.720;108.544;2023-09-19T01:01:12;20.77;;;11.18;;
65641;SDS011;52340;-6.720;108.544;2023-09-19T01:02:14;20.75;;;11.80;;
65641;SDS011;52340;-6.720;108.544;2023-09-19T01:03:16;21.80;;;11.00;;
65641;SDS011;52340;-6.720;108.544;2023-09-19T01:04:18;21.98;;;11.13;;
65641;SDS011;52340;-6.720;108.544;2023-09-19T01:05:20;22.65;;;11.50;;
65641;SDS011;52340;-6.720;108.544;2023-09-19T01:06:22;23.38;;;11.52;;
65641;SDS011;52340;-6.720;108.544;2023-09-19T01:07:23;24.90;;;11.15;;
65641;SDS011;52340;-6.720;108.544;2023-09-19T01:08:26;26.45;;;10.75;;
65641;SDS011;52340;-6.720;108.544;2023-09-19T01:09:27;21.83;;;11.00;;
65641;SDS011;52340;-6.720;108.544;2023-09-19T01:10:29;22.75;;;10.93;;
65641;SDS011;52340;-6.720;108.544;2023-09-19T01:11:32;18.40;;;10.27;;
65641;SDS011;52340;-6.720;108.544;2023-09-19T01:12:41;17.75;;;10.18;;
65641;SDS011;52340;-6.720;108.544;2023-09-19T01:13:52;18.90;;;9.68;;
65641;SDS011;52340;-6.720;108.544;2023-09-19T01:15:01;17.83;;;9.07;;
65641;SDS011;52340;-6.720;108.544;2023-09-19T01:16:07;16.58;;;9.15;;
65641;SDS011;52340;-6.720;108.544;2023-09-19T01:17:27;22.58;;;9.27;;
65641;SDS011;52340;-6.720;108.544;2023-09-19T01:18:35;15.90;;;9.00;;
65641;SDS011;52340;-6.720;108.544;2023-09-19T01:19:58;24.42;;;9.57;;
65641;SDS011;52340;-6.720;108.544;2023-09-19T01:21:13;17.25;;;9.68;;
65641;SDS011;52340;-6.720;108.544;2023-09-19T01:22:21;25.80;;;12.77;;
65641;SDS011;52340;-6.720;108.544;2023-09-19T01:23:27;33.03;;;17.58;;
65641;SDS011;52340;-6.720;108.544;2023-09-19T01:24:38;58.97;;;28.77;;
65641;SDS011;52340;-6.720;108.544;2023-09-19T01:26:03;42.55;;;21.00;;
65641;SDS011;52340;-6.720;108.544;2023-09-19T01:27:17;23.67;;;12.70;;
65641;SDS011;52340;-6.720;108.544;2023-09-19T01:28:32;27.33;;;13.57;;
65641;SDS011;52340;-6.720;108.544;2023-09-19T01:29:36;28.95;;;15.75;;
65641;SDS011;52340;-6.720;108.544;2023-09-19T01:30:42;27.00;;;13.65;;
65641;SDS011;52340;-6.720;108.544;2023-09-19T01:31:45;26.23;;;13.48;;
65641;SDS011;52340;-6.720;108.544;2023-09-19T01:32:47;23.02;;;11.88;;
65641;SDS011;52340;-6.720;108.544;2023-09-19T01:33:57;19.25;;;10.02;;
65641;SDS011;52340;-6.720;108.544;2023-09-19T01:35:00;19.52;;;9.93;;
65641;SDS011;52340;-6.720;108.544;2023-09-19T01:36:02;18.90;;;9.68;;
65641;SDS011;52340;-6.720;108.544;2023-09-19T01:37:03;16.33;;;8.98;;
65641;SDS011;52340;-6.720;108.544;2023-09-19T01:38:05;17.42;;;9.07;;
65641;SDS011;52340;-6.720;108.544;2023-09-19T01:39:07;14.25;;;8.20;;
65641;SDS011;52340;-6.720;108.544;2023-09-19T01:40:11;14.88;;;8.18;;
65641;SDS011;52340;-6.720;108.544;2023-09-19T01:41:13;17.08;;;7.95;;
65641;SDS011;52340;-6.720;108.544;2023-09-19T01:42:23;15.70;;;7.88;;
65641;SDS011;52340;-6.720;108.544;2023-09-19T01:43:30;15.50;;;7.70;;
65641;SDS011;52340;-6.720;108.544;2023-09-19T01:44:36;17.52;;;8.25;;
65641;SDS011;52340;-6.720;108.544;2023-09-19T01:45:51;14.80;;;7.80;;
65641;SDS011;52340;-6.720;108.544;2023-09-19T01:46:58;13.95;;;7.40;;
65641;SDS011;52340;-6.720;108.544;2023-09-19T01:48:05;15.75;;;7.78;;
65641;SDS011;52340;-6.720;108.544;2023-09-19T01:49:18;20.00;;;7.50;;
65641;SDS011;52340;-6.720;108.544;2023-09-19T01:50:29;13.10;;;7.45;;
65641;SDS011;52340;-6.720;108.544;2023-09-19T01:51:34;16.88;;;7.82;;
65641;SDS011;52340;-6.720;108.544;2023-09-19T01:52:40;23.77;;;8.13;;
65641;SDS011;52340;-6.720;108.544;2023-09-19T01:53:50;19.17;;;8.07;;
65641;SDS011;52340;-6.720;108.544;2023-09-19T01:55:01;21.38;;;7.70;;
65641;SDS011;52340;-6.720;108.544;2023-09-19T01:56:06;20.15;;;8.45;;
65641;SDS011;52340;-6.720;108.544;2023-09-19T01:57:13;17.80;;;7.45;;
65641;SDS011;52340;-6.720;108.544;2023-09-19T01:58:17;17.50;;;7.20;;
65641;SDS011;52340;-6.720;108.544;2023-09-19T01:59:24;17.92;;;7.60;;
65641;SDS011;52340;-6.720;108.544;2023-09-19T02:00:26;14.48;;;7.40;;
65641;SDS011;52340;-6.720;108.544;2023-09-19T02:01:31;16.23;;;7.75;;
65641;SDS011;52340;-6.720;108.544;2023-09-19T02:02:33;16.35;;;7.60;;
65641;SDS011;52340;-6.720;108.544;2023-09-19T02:03:36;16.17;;;7.28;;
65641;SDS011;52340;-6.720;108.544;2023-09-19T02:04:38;14.13;;;7.13;;
65641;SDS011;52340;-6.720;108.544;2023-09-19T02:05:40;13.93;;;6.97;;
65641;SDS011;52340;-6.720;108.544;2023-09-19T02:06:42;17.05;;;7.00;;
65641;SDS011;52340;-6.720;108.544;2023-09-19T02:07:43;14.77;;;7.20;;
65641;SDS011;52340;-6.720;108.544;2023-09-19T02:08:45;21.25;;;7.47;;
65641;SDS011;52340;-6.720;108.544;2023-09-19T02:09:47;16.73;;;7.47;;
65641;SDS011;52340;-6.720;108.544;2023-09-19T02:10:49;13.68;;;7.07;;
65641;SDS011;52340;-6.720;108.544;2023-09-19T02:11:51;15.85;;;6.80;;
65641;SDS011;52340;-6.720;108.544;2023-09-19T02:12:52;15.50;;;7.00;;
65641;SDS011;52340;-6.720;108.544;2023-09-19T02:13:54;13.73;;;6.60;;
65641;SDS011;52340;-6.720;108.544;2023-09-19T02:14:56;13.55;;;6.80;;
65641;SDS011;52340;-6.720;108.544;2023-09-19T02:15:58;12.82;;;6.50;;
65641;SDS011;52340;-6.720;108.544;2023-09-19T02:17:02;12.25;;;6.70;;
65641;SDS011;52340;-6.720;108.544;2023-09-19T02:18:04;13.25;;;6.20;;
65641;SDS011;52340;-6.720;108.544;2023-09-19T02:19:06;14.65;;;7.30;;
65641;SDS011;52340;-6.720;108.544;2023-09-19T02:20:08;13.65;;;6.88;;
65641;SDS011;52340;-6.720;108.544;2023-09-19T02:21:10;13.50;;;6.65;;
65641;SDS011;52340;-6.720;108.544;2023-09-19T02:22:12;17.02;;;6.70;;
65641;SDS011;52340;-6.720;108.544;2023-09-19T02:23:14;15.20;;;6.45;;
65641;SDS011;52340;-6.720;108.544;2023-09-19T02:24:15;14.13;;;6.95;;
65641;SDS011;52340;-6.720;108.544;2023-09-19T02:25:17;13.50;;;6.97;;
65641;SDS011;52340;-6.720;108.544;2023-09-19T02:26:19;13.73;;;6.88;;
65641;SDS011;52340;-6.720;108.544;2023-09-19T02:27:21;14.73;;;7.20;;
65641;SDS011;52340;-6.720;108.544;2023-09-19T02:28:22;14.15;;;6.93;;
65641;SDS011;52340;-6.720;108.544;2023-09-19T02:29:24;14.05;;;7.22;;
65641;SDS011;52340;-6.720;108.544;2023-09-19T02:30:26;13.80;;;7.00;;
65641;SDS011;52340;-6.720;108.544;2023-09-19T02:31:28;14.13;;;7.13;;
65641;SDS011;52340;-6.720;108.544;2023-09-19T02:32:31;18.77;;;7.00;;
65641;SDS011;52340;-6.720;108.544;2023-09-19T02:33:33;15.60;;;7.28;;
65641;SDS011;52340;-6.720;108.544;2023-09-19T02:34:34;14.32;;;6.90;;
65641;SDS011;52340;-6.720;108.544;2023-09-19T02:35:36;29.90;;;7.50;;
65641;SDS011;52340;-6.720;108.544;2023-09-19T02:36:38;15.48;;;7.18;;
65641;SDS011;52340;-6.720;108.544;2023-09-19T02:37:40;14.07;;;6.80;;
65641;SDS011;52340;-6.720;108.544;2023-09-19T02:38:41;14.05;;;7.18;;
65641;SDS011;52340;-6.720;108.544;2023-09-19T02:39:43;15.60;;;7.50;;
65641;SDS011;52340;-6.720;108.544;2023-09-19T02:40:45;14.68;;;7.30;;
65641;SDS011;52340;-6.720;108.544;2023-09-19T02:41:47;14.48;;;7.65;;
65641;SDS011;52340;-6.720;108.544;2023-09-19T02:42:48;19.95;;;7.68;;
65641;SDS011;52340;-6.720;108.544;2023-09-19T02:43:54;14.93;;;7.72;;
65641;SDS011;52340;-6.720;108.544;2023-09-19T02:44:56;15.07;;;7.43;;
65641;SDS011;52340;-6.720;108.544;2023-09-19T02:45:57;18.55;;;9.32;;
65641;SDS011;52340;-6.720;108.544;2023-09-19T02:46:59;21.88;;;9.43;;
65641;SDS011;52340;-6.720;108.544;2023-09-19T02:48:03;20.00;;;9.27;;
65641;SDS011;52340;-6.720;108.544;2023-09-19T02:49:05;16.95;;;9.48;;
65641;SDS011;52340;-6.720;108.544;2023-09-19T02:50:07;24.67;;;10.82;;
65641;SDS011;52340;-6.720;108.544;2023-09-19T02:51:09;20.42;;;10.38;;
65641;SDS011;52340;-6.720;108.544;2023-09-19T02:52:11;21.40;;;10.88;;
65641;SDS011;52340;-6.720;108.544;2023-09-19T02:53:13;24.63;;;9.93;;
65641;SDS011;52340;-6.720;108.544;2023-09-19T02:54:14;18.17;;;10.43;;
65641;SDS011;52340;-6.720;108.544;2023-09-19T02:55:16;17.58;;;9.85;;
65641;SDS011;52340;-6.720;108.544;2023-09-19T02:56:19;19.55;;;11.23;;
65641;SDS011;52340;-6.720;108.544;2023-09-19T02:57:21;22.65;;;12.70;;
65641;SDS011;52340;-6.720;108.544;2023-09-19T02:58:22;19.88;;;12.02;;
65641;SDS011;52340;-6.720;108.544;2023-09-19T02:59:24;23.17;;;11.30;;
65641;SDS011;52340;-6.720;108.544;2023-09-19T03:00:26;23.73;;;11.65;;
65641;SDS011;52340;-6.720;108.544;2023-09-19T03:01:28;21.20;;;11.23;;
65641;SDS011;52340;-6.720;108.544;2023-09-19T03:02:30;47.25;;;17.42;;
65641;SDS011;52340;-6.720;108.544;2023-09-19T03:03:33;57.17;;;19.67;;
65641;SDS011;52340;-6.720;108.544;2023-09-19T03:04:37;52.40;;;17.08;;
65641;SDS011;52340;-6.720;108.544;2023-09-19T03:05:39;47.13;;;16.02;;
65641;SDS011;52340;-6.720;108.544;2023-09-19T03:06:41;46.20;;;15.75;;
65641;SDS011;52340;-6.720;108.544;2023-09-19T03:07:43;40.33;;;14.10;;
65641;SDS011;52340;-6.720;108.544;2023-09-19T03:08:44;37.13;;;13.40;;
65641;SDS011;52340;-6.720;108.544;2023-09-19T03:09:46;27.33;;;11.90;;
65641;SDS011;52340;-6.720;108.544;2023-09-19T03:10:48;26.85;;;11.23;;
65641;SDS011;52340;-6.720;108.544;2023-09-19T03:11:50;22.70;;;10.57;;
65641;SDS011;52340;-6.720;108.544;2023-09-19T03:12:51;20.88;;;9.60;;
65641;SDS011;52340;-6.720;108.544;2023-09-19T03:13:53;20.63;;;9.65;;
65641;SDS011;52340;-6.720;108.544;2023-09-19T03:14:55;19.83;;;10.25;;
65641;SDS011;52340;-6.720;108.544;2023-09-19T03:15:57;23.10;;;9.85;;
65641;SDS011;52340;-6.720;108.544;2023-09-19T03:16:59;19.77;;;9.93;;
65641;SDS011;52340;-6.720;108.544;2023-09-19T03:18:00;21.17;;;10.43;;
65641;SDS011;52340;-6.720;108.544;2023-09-19T03:19:04;16.60;;;9.63;;
65641;SDS011;52340;-6.720;108.544;2023-09-19T03:20:06;28.70;;;12.82;;
65641;SDS011;52340;-6.720;108.544;2023-09-19T03:21:08;23.50;;;13.15;;
65641;SDS011;52340;-6.720;108.544;2023-09-19T03:22:10;21.88;;;12.02;;
65641;SDS011;52340;-6.720;108.544;2023-09-19T03:23:12;22.23;;;12.73;;
65641;SDS011;52340;-6.720;108.544;2023-09-19T03:24:14;21.25;;;13.63;;
65641;SDS011;52340;-6.720;108.544;2023-09-19T03:25:15;21.67;;;13.88;;
65641;SDS011;52340;-6.720;108.544;2023-09-19T03:26:17;26.83;;;14.32;;
65641;SDS011;52340;-6.720;108.544;2023-09-19T03:27:19;30.52;;;16.65;;
65641;SDS011;52340;-6.720;108.544;2023-09-19T03:28:21;33.10;;;18.85;;
65641;SDS011;52340;-6.720;108.544;2023-09-19T03:29:23;26.80;;;15.25;;
65641;SDS011;52340;-6.720;108.544;2023-09-19T03:30:24;28.42;;;16.45;;
65641;SDS011;52340;-6.720;108.544;2023-09-19T03:31:26;32.47;;;18.75;;
65641;SDS011;52340;-6.720;108.544;2023-09-19T03:32:28;30.00;;;15.68;;
65641;SDS011;52340;-6.720;108.544;2023-09-19T03:33:30;28.88;;;16.52;;
65641;SDS011;52340;-6.720;108.544;2023-09-19T03:34:33;28.65;;;15.35;;
65641;SDS011;52340;-6.720;108.544;2023-09-19T03:35:35;24.20;;;13.85;;
65641;SDS011;52340;-6.720;108.544;2023-09-19T03:36:36;21.33;;;12.23;;
65641;SDS011;52340;-6.720;108.544;2023-09-19T03:37:38;21.65;;;11.43;;
65641;SDS011;52340;-6.720;108.544;2023-09-19T03:38:40;19.23;;;10.75;;
65641;SDS011;52340;-6.720;108.544;2023-09-19T03:39:42;18.75;;;11.50;;
65641;SDS011;52340;-6.720;108.544;2023-09-19T03:40:44;17.58;;;10.40;;
65641;SDS011;52340;-6.720;108.544;2023-09-19T03:41:45;20.15;;;10.43;;
65641;SDS011;52340;-6.720;108.544;2023-09-19T03:42:47;17.60;;;10.48;;
65641;SDS011;52340;-6.720;108.544;2023-09-19T03:43:49;17.45;;;9.55;;
65641;SDS011;52340;-6.720;108.544;2023-09-19T03:44:51;18.40;;;9.50;;
65641;SDS011;52340;-6.720;108.544;2023-09-19T03:45:52;18.75;;;9.73;;
65641;SDS011;52340;-6.720;108.544;2023-09-19T03:46:54;23.00;;;11.05;;
65641;SDS011;52340;-6.720;108.544;2023-09-19T03:47:56;23.40;;;11.95;;
65641;SDS011;52340;-6.720;108.544;2023-09-19T03:48:58;18.55;;;10.02;;
65641;SDS011;52340;-6.720;108.544;2023-09-19T03:50:01;22.40;;;11.48;;
65641;SDS011;52340;-6.720;108.544;2023-09-19T03:51:03;20.30;;;10.95;;
65641;SDS011;52340;-6.720;108.544;2023-09-19T03:52:05;20.95;;;10.73;;
65641;SDS011;52340;-6.720;108.544;2023-09-19T03:53:06;20.30;;;10.40;;
65641;SDS011;52340;-6.720;108.544;2023-09-19T03:54:08;21.48;;;10.60;;
65641;SDS011;52340;-6.720;108.544;2023-09-19T03:55:10;19.00;;;9.48;;
65641;SDS011;52340;-6.720;108.544;2023-09-19T03:56:12;18.88;;;9.75;;
65641;SDS011;52340;-6.720;108.544;2023-09-19T03:57:14;16.58;;;9.50;;
65641;SDS011;52340;-6.720;108.544;2023-09-19T03:58:15;16.63;;;9.57;;
65641;SDS011;52340;-6.720;108.544;2023-09-19T03:59:17;16.58;;;8.70;;
65641;SDS011;52340;-6.720;108.544;2023-09-19T04:00:19;16.27;;;9.52;;
65641;SDS011;52340;-6.720;108.544;2023-09-19T04:01:21;17.40;;;9.70;;
65641;SDS011;52340;-6.720;108.544;2023-09-19T04:02:23;18.73;;;9.70;;
65641;SDS011;52340;-6.720;108.544;2023-09-19T04:03:25;15.80;;;8.93;;
65641;SDS011;52340;-6.720;108.544;2023-09-19T04:04:26;17.40;;;8.68;;
65641;SDS011;52340;-6.720;108.544;2023-09-19T04:05:30;17.13;;;9.27;;
65641;SDS011;52340;-6.720;108.544;2023-09-19T04:06:32;18.58;;;9.40;;
65641;SDS011;52340;-6.720;108.544;2023-09-19T04:07:33;15.30;;;8.60;;
65641;SDS011;52340;-6.720;108.544;2023-09-19T04:08:35;14.85;;;8.90;;
65641;SDS011;52340;-6.720;108.544;2023-09-19T04:09:37;19.95;;;9.07;;
65641;SDS011;52340;-6.720;108.544;2023-09-19T04:10:40;15.27;;;8.73;;
65641;SDS011;52340;-6.720;108.544;2023-09-19T04:11:43;17.58;;;9.05;;
65641;SDS011;52340;-6.720;108.544;2023-09-19T04:12:53;14.57;;;8.30;;
65641;SDS011;52340;-6.720;108.544;2023-09-19T04:13:55;16.55;;;9.20;;
65641;SDS011;52340;-6.720;108.544;2023-09-19T04:14:57;15.50;;;8.98;;
65641;SDS011;52340;-6.720;108.544;2023-09-19T04:15:59;14.57;;;8.35;;
65641;SDS011;52340;-6.720;108.544;2023-09-19T04:17:00;16.35;;;8.80;;
65641;SDS011;52340;-6.720;108.544;2023-09-19T04:18:02;22.27;;;9.10;;
65641;SDS011;52340;-6.720;108.544;2023-09-19T04:19:04;16.48;;;9.10;;
65641;SDS011;52340;-6.720;108.544;2023-09-19T04:20:06;17.30;;;8.95;;
65641;SDS011;52340;-6.720;108.544;2023-09-19T04:21:11;15.95;;;9.13;;
65641;SDS011;52340;-6.720;108.544;2023-09-19T04:22:15;14.75;;;8.90;;
65641;SDS011;52340;-6.720;108.544;2023-09-19T04:23:16;14.85;;;8.95;;
65641;SDS011;52340;-6.720;108.544;2023-09-19T04:24:18;17.30;;;8.85;;
65641;SDS011;52340;-6.720;108.544;2023-09-19T04:25:20;15.77;;;8.65;;
65641;SDS011;52340;-6.720;108.544;2023-09-19T04:26:22;16.65;;;8.85;;
65641;SDS011;52340;-6.720;108.544;2023-09-19T04:27:24;14.77;;;8.40;;
65641;SDS011;52340;-6.720;108.544;2023-09-19T04:28:25;14.50;;;8.55;;
65641;SDS011;52340;-6.720;108.544;2023-09-19T04:29:27;18.17;;;9.13;;
65641;SDS011;52340;-6.720;108.544;2023-09-19T04:30:29;17.33;;;9.00;;
65641;SDS011;52340;-6.720;108.544;2023-09-19T04:31:31;15.90;;;8.77;;
65641;SDS011;52340;-6.720;108.544;2023-09-19T04:32:33;16.50;;;8.85;;
65641;SDS011;52340;-6.720;108.544;2023-09-19T04:33:35;18.98;;;8.88;;
65641;SDS011;52340;-6.720;108.544;2023-09-19T04:34:36;19.63;;;9.15;;
65641;SDS011;52340;-6.720;108.544;2023-09-19T04:35:38;19.77;;;9.73;;
65641;SDS011;52340;-6.720;108.544;2023-09-19T04:36:42;15.35;;;9.63;;
65641;SDS011;52340;-6.720;108.544;2023-09-19T04:37:44;20.95;;;9.75;;
65641;SDS011;52340;-6.720;108.544;2023-09-19T04:38:45;27.05;;;9.65;;
65641;SDS011;52340;-6.720;108.544;2023-09-19T04:39:47;19.67;;;9.80;;
65641;SDS011;52340;-6.720;108.544;2023-09-19T04:40:49;16.55;;;9.98;;
65641;SDS011;52340;-6.720;108.544;2023-09-19T04:41:51;17.65;;;9.75;;
65641;SDS011;52340;-6.720;108.544;2023-09-19T04:42:53;19.00;;;9.90;;
65641;SDS011;52340;-6.720;108.544;2023-09-19T04:43:55;18.27;;;9.32;;
65641;SDS011;52340;-6.720;108.544;2023-09-19T04:44:57;17.92;;;9.10;;
65641;SDS011;52340;-6.720;108.544;2023-09-19T04:45:58;18.83;;;9.05;;
65641;SDS011;52340;-6.720;108.544;2023-09-19T04:47:00;21.13;;;9.20;;
65641;SDS011;52340;-6.720;108.544;2023-09-19T04:48:02;17.48;;;9.30;;
65641;SDS011;52340;-6.720;108.544;2023-09-19T04:49:04;21.50;;;9.90;;
65641;SDS011;52340;-6.720;108.544;2023-09-19T04:50:07;19.58;;;9.27;;
65641;SDS011;52340;-6.720;108.544;2023-09-19T04:51:09;18.08;;;9.30;;
65641;SDS011;52340;-6.720;108.544;2023-09-19T04:52:13;20.65;;;9.95;;
65641;SDS011;52340;-6.720;108.544;2023-09-19T04:53:15;18.88;;;9.65;;
65641;SDS011;52340;-6.720;108.544;2023-09-19T04:54:16;34.22;;;10.43;;
65641;SDS011;52340;-6.720;108.544;2023-09-19T04:55:18;20.27;;;9.80;;
65641;SDS011;52340;-6.720;108.544;2023-09-19T04:56:20;18.27;;;9.75;;
65641;SDS011;52340;-6.720;108.544;2023-09-19T04:57:22;19.42;;;9.52;;
65641;SDS011;52340;-6.720;108.544;2023-09-19T04:58:24;18.10;;;9.95;;
65641;SDS011;52340;-6.720;108.544;2023-09-19T04:59:26;19.20;;;10.13;;
65641;SDS011;52340;-6.720;108.544;2023-09-19T05:00:27;17.42;;;9.70;;
65641;SDS011;52340;-6.720;108.544;2023-09-19T05:01:29;15.93;;;9.82;;
65641;SDS011;52340;-6.720;108.544;2023-09-19T05:02:31;15.57;;;9.50;;
65641;SDS011;52340;-6.720;108.544;2023-09-19T05:03:32;18.33;;;9.70;;
65641;SDS011;52340;-6.720;108.544;2023-09-19T05:04:34;16.17;;;9.45;;
65641;SDS011;52340;-6.720;108.544;2023-09-19T05:05:36;17.08;;;9.35;;
65641;SDS011;52340;-6.720;108.544;2023-09-19T05:06:38;17.73;;;9.48;;
65641;SDS011;52340;-6.720;108.544;2023-09-19T05:07:41;15.15;;;8.88;;
65641;SDS011;52340;-6.720;108.544;2023-09-19T05:08:43;18.58;;;9.57;;
65641;SDS011;52340;-6.720;108.544;2023-09-19T05:09:45;18.67;;;9.45;;
65641;SDS011;52340;-6.720;108.544;2023-09-19T05:10:47;16.85;;;9.65;;
65641;SDS011;52340;-6.720;108.544;2023-09-19T05:11:49;16.77;;;9.70;;
65641;SDS011;52340;-6.720;108.544;2023-09-19T05:12:52;19.83;;;10.68;;
65641;SDS011;52340;-6.720;108.544;2023-09-19T05:13:54;17.80;;;10.15;;
65641;SDS011;52340;-6.720;108.544;2023-09-19T05:14:56;25.27;;;10.40;;
65641;SDS011;52340;-6.720;108.544;2023-09-19T05:15:59;24.52;;;11.73;;
65641;SDS011;52340;-6.720;108.544;2023-09-19T05:17:01;21.77;;;11.60;;
65641;SDS011;52340;-6.720;108.544;2023-09-19T05:18:05;20.38;;;11.55;;
65641;SDS011;52340;-6.720;108.544;2023-09-19T05:19:07;24.85;;;11.52;;
65641;SDS011;52340;-6.720;108.544;2023-09-19T05:20:09;20.40;;;11.90;;
65641;SDS011;52340;-6.720;108.544;2023-09-19T05:21:11;20.35;;;10.20;;
65641;SDS011;52340;-6.720;108.544;2023-09-19T05:22:13;19.08;;;11.15;;
65641;SDS011;52340;-6.720;108.544;2023-09-19T05:23:17;20.05;;;10.70;;
65641;SDS011;52340;-6.720;108.544;2023-09-19T05:24:19;21.30;;;11.57;;
65641;SDS011;52340;-6.720;108.544;2023-09-19T05:25:20;19.67;;;10.55;;
65641;SDS011;52340;-6.720;108.544;2023-09-19T05:26:22;21.67;;;11.60;;
65641;SDS011;52340;-6.720;108.544;2023-09-19T05:27:24;23.42;;;10.60;;
65641;SDS011;52340;-6.720;108.544;2023-09-19T05:28:26;22.67;;;10.93;;
65641;SDS011;52340;-6.720;108.544;2023-09-19T05:29:27;22.75;;;11.23;;
65641;SDS011;52340;-6.720;108.544;2023-09-19T05:30:29;21.67;;;10.68;;
65641;SDS011;52340;-6.720;108.544;2023-09-19T05:31:31;24.25;;;10.93;;
65641;SDS011;52340;-6.720;108.544;2023-09-19T05:32:33;19.17;;;10.35;;
65641;SDS011;52340;-6.720;108.544;2023-09-19T05:33:35;19.48;;;10.30;;
65641;SDS011;52340;-6.720;108.544;2023-09-19T05:34:37;22.60;;;10.57;;
65641;SDS011;52340;-6.720;108.544;2023-09-19T05:35:39;20.48;;;9.90;;
65641;SDS011;52340;-6.720;108.544;2023-09-19T05:36:41;20.05;;;10.50;;
65641;SDS011;52340;-6.720;108.544;2023-09-19T05:37:42;18.13;;;10.30;;
65641;SDS011;52340;-6.720;108.544;2023-09-19T05:38:46;18.25;;;9.98;;
65641;SDS011;52340;-6.720;108.544;2023-09-19T05:39:48;18.30;;;9.48;;
65641;SDS011;52340;-6.720;108.544;2023-09-19T05:40:49;19.70;;;10.05;;
65641;SDS011;52340;-6.720;108.544;2023-09-19T05:41:51;16.77;;;10.10;;
65641;SDS011;52340;-6.720;108.544;2023-09-19T05:42:53;19.85;;;10.75;;
65641;SDS011;52340;-6.720;108.544;2023-09-19T05:43:54;17.88;;;9.88;;
65641;SDS011;52340;-6.720;108.544;2023-09-19T05:44:56;18.20;;;10.02;;
65641;SDS011;52340;-6.720;108.544;2023-09-19T05:45:59;16.88;;;8.90;;
65641;SDS011;52340;-6.720;108.544;2023-09-19T05:47:01;18.38;;;9.70;;
65641;SDS011;52340;-6.720;108.544;2023-09-19T05:48:10;21.67;;;10.70;;
65641;SDS011;52340;-6.720;108.544;2023-09-19T05:49:13;24.45;;;12.48;;
65641;SDS011;52340;-6.720;108.544;2023-09-19T05:50:15;26.80;;;12.27;;
65641;SDS011;52340;-6.720;108.544;2023-09-19T05:51:17;21.05;;;11.02;;
65641;SDS011;52340;-6.720;108.544;2023-09-19T05:52:19;21.50;;;11.88;;
65641;SDS011;52340;-6.720;108.544;2023-09-19T05:53:22;21.60;;;10.95;;
65641;SDS011;52340;-6.720;108.544;2023-09-19T05:54:25;19.20;;;10.40;;
65641;SDS011;52340;-6.720;108.544;2023-09-19T05:55:27;16.75;;;10.05;;
65641;SDS011;52340;-6.720;108.544;2023-09-19T05:56:28;16.60;;;9.63;;
65641;SDS011;52340;-6.720;108.544;2023-09-19T05:57:30;16.77;;;9.80;;
65641;SDS011;52340;-6.720;108.544;2023-09-19T05:58:32;18.67;;;9.90;;
65641;SDS011;52340;-6.720;108.544;2023-09-19T05:59:34;21.33;;;9.73;;